Time;durP1;ratioP1;P1;durP2;ratioP2;P2;SDS_P1;SDS_P2;PMS_P1;PMS_P2;Temp;Humidity;BMP_temperature;BMP_pressure;BME280_temperature;BME280_humidity;BME280_pressure;Samples;Min_cycle;Max_cycle;Signal;HPM_P1;HPM_P2
2021/01/31 00:01:42;;;;;;;10.03;9.13;;;;;;;-1.80;100.00;96459.50;5021267;28;20446;-71
2021/01/31 00:04:09;;;;;;;9.77;8.97;;;;;;;-1.72;100.00;96465.84;5022920;28;20235;-72
2021/01/31 00:06:36;;;;;;;8.90;8.10;;;;;;;-1.70;100.00;96469.19;5022809;28;20451;-73
2021/01/31 00:09:03;;;;;;;9.67;8.77;;;;;;;-1.71;100.00;96470.09;5026667;28;20454;-72
2021/01/31 00:11:31;;;;;;;9.03;8.23;;;;;;;-1.71;100.00;96464.91;5025319;28;20445;-71
2021/01/31 00:13:58;;;;;;;9.80;8.77;;;;;;;-1.65;100.00;96469.63;5028725;28;20231;-72
2021/01/31 00:16:25;;;;;;;9.40;8.50;;;;;;;-1.78;100.00;96469.78;5025874;28;20485;-72
2021/01/31 00:18:52;;;;;;;10.23;9.23;;;;;;;-1.83;100.00;96470.16;5026006;28;20482;-73
2021/01/31 00:21:19;;;;;;;10.33;9.33;;;;;;;-1.86;100.00;96469.59;5027507;28;20204;-72
2021/01/31 00:23:47;;;;;;;10.70;8.60;;;;;;;-1.84;100.00;96463.31;5022615;28;20942;-72
2021/01/31 00:26:19;;;;;;;9.87;8.97;;;;;;;-1.82;100.00;96471.00;5022853;28;20203;-73
2021/01/31 00:28:47;;;;;;;9.60;8.70;;;;;;;-1.84;100.00;96471.09;5025667;28;20445;-72
2021/01/31 00:31:14;;;;;;;9.03;8.13;;;;;;;-1.79;100.00;96468.16;5020488;28;20439;-72
2021/01/31 00:33:41;;;;;;;9.73;8.83;;;;;;;-1.82;100.00;96465.78;5022811;28;20478;-72
2021/01/31 00:36:08;;;;;;;9.57;8.67;;;;;;;-1.91;100.00;96462.16;5023848;28;20481;-72
2021/01/31 00:38:35;;;;;;;9.30;8.40;;;;;;;-1.87;100.00;96467.94;5024548;28;20684;-71
2021/01/31 00:41:02;;;;;;;9.57;8.77;;;;;;;-1.94;100.00;96467.59;5016536;28;20442;-72
2021/01/31 00:43:29;;;;;;;9.50;8.70;;;;;;;-1.96;100.00;96456.53;5024522;28;20770;-71
2021/01/31 00:45:57;;;;;;;9.73;8.87;;;;;;;-1.81;100.00;96457.06;5021902;28;20466;-73
2021/01/31 00:48:25;;;;;;;8.93;8.03;;;;;;;-1.82;100.00;96468.41;5022205;28;20696;-73
2021/01/31 00:50:52;;;;;;;8.93;8.10;;;;;;;-1.80;100.00;96466.50;5021607;28;20247;-71
2021/01/31 00:53:19;;;;;;;9.03;8.23;;;;;;;-1.85;100.00;96461.66;5031139;28;20219;-72
2021/01/31 00:55:46;;;;;;;9.13;8.33;;;;;;;-1.91;100.00;96462.97;5029303;28;20204;-74
2021/01/31 00:58:13;;;;;;;8.30;7.60;;;;;;;-1.71;100.00;96467.50;5022549;28;20208;-73
2021/01/31 01:00:41;;;;;;;8.80;8.00;;;;;;;-1.86;100.00;96460.00;5020983;28;20442;-72
2021/01/31 01:03:09;;;;;;;9.30;8.50;;;;;;;-1.90;100.00;96461.22;5020190;28;20447;-73
2021/01/31 01:05:36;;;;;;;8.27;7.57;;;;;;;-2.01;100.00;96462.06;5022834;28;20223;-71
2021/01/31 01:08:03;;;;;;;8.43;7.73;;;;;;;-1.89;100.00;96462.84;5019013;28;20471;-71
2021/01/31 01:10:33;;;;;;;9.00;8.10;;;;;;;-1.92;100.00;96469.13;5020302;28;20204;-71
2021/01/31 01:13:00;;;;;;;9.30;8.50;;;;;;;-1.99;100.00;96474.94;5024586;28;20382;-72
2021/01/31 01:15:28;;;;;;;8.47;7.73;;;;;;;-1.81;100.00;96483.84;5021283;28;20435;-72
2021/01/31 01:17:56;;;;;;;8.33;7.63;;;;;;;-1.81;100.00;96496.00;5023529;28;20450;-72
2021/01/31 01:20:25;;;;;;;8.73;7.93;;;;;;;-1.90;100.00;96481.97;5020873;28;20228;-73
2021/01/31 01:22:53;;;;;;;8.93;8.13;;;;;;;-1.98;100.00;96480.00;5021711;28;20457;-72
2021/01/31 01:25:22;;;;;;;9.47;8.53;;;;;;;-1.93;100.00;96480.44;5023108;28;20466;-72
2021/01/31 01:27:49;;;;;;;7.83;7.23;;;;;;;-1.97;100.00;96476.44;5022078;28;20208;-72
2021/01/31 01:30:18;;;;;;;9.13;8.33;;;;;;;-2.09;100.00;96470.47;5023777;28;20211;-72
2021/01/31 01:32:48;;;;;;;8.97;8.10;;;;;;;-2.02;100.00;96476.00;5023425;28;20450;-73
2021/01/31 01:35:15;;;;;;;10.10;9.10;;;;;;;-1.98;100.00;96487.78;5020775;28;20513;-71
2021/01/31 01:37:44;;;;;;;8.87;8.03;;;;;;;-1.86;100.00;96488.59;5020245;28;20455;-72
2021/01/31 01:40:17;;;;;;;8.90;8.20;;;;;;;-1.79;100.00;96481.94;5021625;28;21267;-71
2021/01/31 01:42:45;;;;;;;7.93;7.23;;;;;;;-1.96;100.00;96474.69;5022780;28;20463;-73
2021/01/31 01:45:13;;;;;;;8.17;7.47;;;;;;;-2.06;100.00;96472.84;5023203;28;20723;-71
2021/01/31 01:47:40;;;;;;;8.20;7.43;;;;;;;-2.07;100.00;96473.78;5020208;28;20459;-72
2021/01/31 01:50:21;;;;;;;8.97;8.17;;;;;;;-1.90;100.00;96480.19;5022900;28;20451;-71
2021/01/31 01:52:50;;;;;;;8.43;7.63;;;;;;;-1.96;100.00;96475.50;5022391;28;20470;-72
2021/01/31 01:55:18;;;;;;;8.33;7.63;;;;;;;-1.95;100.00;96477.16;5022429;28;20475;-71
2021/01/31 01:57:48;;;;;;;9.37;8.47;;;;;;;-1.98;100.00;96468.81;5022705;28;20953;-71
2021/01/31 02:00:16;;;;;;;9.30;8.40;;;;;;;-2.02;100.00;96481.19;5019202;28;20483;-72
2021/01/31 02:02:50;;;;;;;8.03;7.30;;;;;;;-1.91;100.00;96477.75;5020034;28;20296;-73
2021/01/31 02:05:17;;;;;;;7.70;7.07;;;;;;;-1.98;100.00;96476.59;5021048;28;20554;-71
2021/01/31 02:07:45;;;;;;;8.00;7.30;;;;;;;-2.03;100.00;96484.72;5022318;28;20852;-71
2021/01/31 02:10:15;;;;;;;7.33;6.73;;;;;;;-2.01;100.00;96476.84;5017699;28;20463;-72
2021/01/31 02:12:42;;;;;;;8.20;7.50;;;;;;;-1.96;100.00;96479.88;5021402;28;20603;-73
2021/01/31 02:15:12;;;;;;;8.90;8.10;;;;;;;-1.99;100.00;96474.94;5017808;28;20707;-72
2021/01/31 02:17:49;;;;;;;8.13;7.40;;;;;;;-1.87;100.00;96483.53;5021548;28;20964;-72
2021/01/31 02:20:58;;;;;;;8.10;7.40;;;;;;;-1.91;100.00;96482.94;5021297;28;20228;-72
2021/01/31 02:24:03;;;;;;;7.83;7.00;;;;;;;-1.85;100.00;96487.63;4962882;28;20222;-73
2021/01/31 02:26:52;;;;;;;8.07;7.37;;;;;;;-1.82;100.00;96483.97;5020643;28;20974;-73
2021/01/31 02:29:36;;;;;;;7.80;7.10;;;;;;;-2.00;100.00;96481.88;5022058;28;20967;-72
2021/01/31 02:32:30;;;;;;;8.70;7.90;;;;;;;-2.00;100.00;96483.69;5019752;28;20966;-72
2021/01/31 02:35:01;;;;;;;8.00;7.20;;;;;;;-1.94;100.00;96488.38;5021506;28;20450;-72
2021/01/31 02:37:37;;;;;;;8.17;7.47;;;;;;;-1.87;100.00;96486.13;5021863;28;20724;-73
2021/01/31 02:40:08;;;;;;;8.07;7.37;;;;;;;-1.86;100.00;96485.19;5021411;28;20501;-73
2021/01/31 02:42:40;;;;;;;7.70;6.97;;;;;;;-1.96;100.00;96485.88;5017007;28;20215;-72
2021/01/31 02:45:12;;;;;;;8.13;7.43;;;;;;;-1.88;100.00;96493.06;5016120;28;20229;-72
2021/01/31 02:47:42;;;;;;;7.13;6.63;;;;;;;-1.92;100.00;96489.88;5020861;28;20209;-72
2021/01/31 02:50:14;;;;;;;7.63;6.90;;;;;;;-1.92;100.00;96491.66;5018942;28;20208;-72
2021/01/31 02:52:43;;;;;;;8.73;7.93;;;;;;;-2.00;100.00;96487.09;5019905;28;20209;-72
2021/01/31 02:55:14;;;;;;;8.60;7.80;;;;;;;-1.96;100.00;96501.47;5020828;28;20530;-73
2021/01/31 02:57:46;;;;;;;7.93;6.90;;;;;;;-1.92;100.00;96515.84;5021835;28;20227;-72
2021/01/31 03:00:17;;;;;;;8.13;7.33;;;;;;;-1.97;100.00;96519.78;5016259;28;20476;-72
2021/01/31 03:02:51;;;;;;;7.70;7.00;;;;;;;-1.92;100.00;96518.44;5019186;28;20553;-71
2021/01/31 03:05:21;;;;;;;8.63;6.93;;;;;;;-1.87;100.00;96522.47;5018791;28;20718;-71
2021/01/31 03:07:52;;;;;;;7.93;7.20;;;;;;;-1.74;100.00;96507.56;5019083;28;20238;-71
2021/01/31 03:10:23;;;;;;;7.70;7.00;;;;;;;-1.80;100.00;96526.22;5018115;28;20205;-72
2021/01/31 03:12:55;;;;;;;8.53;7.73;;;;;;;-1.78;100.00;96517.34;5019904;28;20223;-72
2021/01/31 03:15:24;;;;;;;7.77;6.97;;;;;;;-1.97;100.00;96515.41;5018978;28;20474;-73
2021/01/31 03:17:57;;;;;;;7.40;6.80;;;;;;;-1.71;100.00;96509.06;5022475;28;20454;-71
2021/01/31 03:20:27;;;;;;;7.67;6.97;;;;;;;-1.84;100.00;96509.25;5020757;28;21869;-72
2021/01/31 03:22:59;;;;;;;7.33;6.63;;;;;;;-1.88;100.00;96510.44;5024523;28;20208;-72
2021/01/31 03:25:31;;;;;;;7.47;6.87;;;;;;;-1.79;100.00;96501.91;5019679;28;20467;-72
2021/01/31 03:27:58;;;;;;;7.90;7.20;;;;;;;-1.94;100.00;96507.34;5021846;28;20443;-71
2021/01/31 03:30:25;;;;;;;7.93;7.23;;;;;;;-1.93;100.00;96503.81;5020983;28;20443;-72
2021/01/31 03:32:56;;;;;;;7.03;6.40;;;;;;;-1.95;100.00;96504.91;5020210;28;20630;-72
2021/01/31 03:35:27;;;;;;;7.53;6.77;;;;;;;-1.89;100.00;96501.81;5020867;28;20231;-71
2021/01/31 03:37:59;;;;;;;7.67;6.97;;;;;;;-2.01;100.00;96510.59;5022621;28;20462;-72
2021/01/31 03:40:27;;;;;;;6.83;6.23;;;;;;;-1.97;100.00;96510.19;5021981;28;20228;-73
2021/01/31 03:42:55;;;;;;;7.27;6.63;;;;;;;-2.01;100.00;96506.22;5022797;28;20516;-73
2021/01/31 03:45:27;;;;;;;7.97;7.27;;;;;;;-1.94;100.00;96509.16;5023979;28;20230;-73
2021/01/31 03:47:59;;;;;;;8.07;7.33;;;;;;;-1.99;100.00;96519.09;5025965;28;20204;-73
2021/01/31 03:50:27;;;;;;;7.90;7.20;;;;;;;-2.07;100.00;96525.72;5025718;28;20196;-73
2021/01/31 03:52:55;;;;;;;8.20;7.50;;;;;;;-1.94;100.00;96524.72;5022287;28;20212;-73
2021/01/31 03:55:22;;;;;;;7.93;7.23;;;;;;;-2.00;100.00;96525.22;5022991;28;21079;-73
2021/01/31 03:57:52;;;;;;;7.77;7.07;;;;;;;-1.88;100.00;96534.63;5019463;28;20477;-72
2021/01/31 04:00:22;;;;;;;7.77;7.00;;;;;;;-1.92;100.00;96548.78;5023413;28;20822;-73
2021/01/31 04:02:53;;;;;;;7.80;7.10;;;;;;;-2.00;100.00;96543.41;5021212;28;20459;-73
2021/01/31 04:05:21;;;;;;;8.00;7.20;;;;;;;-1.81;100.00;96553.97;5018909;28;20232;-73
2021/01/31 04:07:51;;;;;;;7.90;7.20;;;;;;;-1.86;100.00;96563.88;5019374;28;20208;-73
2021/01/31 04:10:20;;;;;;;8.43;7.20;;;;;;;-1.87;100.00;96551.84;5020884;28;20506;-73
2021/01/31 04:12:52;;;;;;;7.47;6.87;;;;;;;-1.98;100.00;96560.47;5021161;28;20228;-73
2021/01/31 04:15:31;;;;;;;7.30;6.70;;;;;;;-2.03;100.00;96557.44;5020253;28;20590;-71
2021/01/31 04:17:58;;;;;;;8.43;7.73;;;;;;;-1.95;100.00;96567.22;5022491;28;20218;-72
2021/01/31 04:20:25;;;;;;;8.10;7.40;;;;;;;-1.93;100.00;96562.72;5022568;28;20486;-72
2021/01/31 04:22:54;;;;;;;8.53;7.73;;;;;;;-1.77;100.00;96559.75;5021720;28;20504;-73
2021/01/31 04:25:21;;;;;;;9.03;8.23;;;;;;;-1.78;100.00;96561.50;5023501;28;20463;-73
2021/01/31 04:27:48;;;;;;;8.50;7.70;;;;;;;-1.90;100.00;96563.28;5024380;28;20447;-73
2021/01/31 04:30:16;;;;;;;7.73;7.03;;;;;;;-1.88;100.00;96559.78;5025132;28;20526;-72
2021/01/31 04:32:43;;;;;;;8.90;8.10;;;;;;;-2.00;100.00;96556.38;5022875;28;20469;-73
2021/01/31 04:35:11;;;;;;;8.47;7.67;;;;;;;-1.94;100.00;96564.47;5022676;28;20462;-72
2021/01/31 04:37:39;;;;;;;9.30;7.87;;;;;;;-1.73;100.00;96562.91;5022307;28;20443;-73
2021/01/31 04:40:10;;;;;;;8.87;7.97;;;;;;;-1.90;100.00;96565.88;5024188;28;21089;-73
2021/01/31 04:42:38;;;;;;;8.83;7.93;;;;;;;-1.84;100.00;96569.78;5022585;28;20450;-73
2021/01/31 04:45:07;;;;;;;8.07;7.30;;;;;;;-1.86;100.00;96569.09;5021420;28;20850;-72
2021/01/31 04:47:37;;;;;;;8.50;7.70;;;;;;;-1.99;100.00;96574.41;5020314;28;20288;-73
2021/01/31 04:50:11;;;;;;;9.60;8.70;;;;;;;-1.94;100.00;96581.84;5022820;28;20439;-72
2021/01/31 04:53:17;;;;;;;9.47;8.57;;;;;;;-1.97;100.00;96587.28;5020830;28;20203;-72
2021/01/31 04:56:09;;;;;;;8.90;8.00;;;;;;;-1.90;100.00;96588.44;5022439;28;20208;-73
2021/01/31 04:58:39;;;;;;;8.63;7.80;;;;;;;-1.87;100.00;96598.59;5017993;28;20205;-73
2021/01/31 05:01:11;;;;;;;9.43;8.47;;;;;;;-1.84;100.00;96600.94;5022171;28;20490;-72
2021/01/31 05:03:45;;;;;;;10.50;9.40;;;;;;;-1.86;100.00;96602.03;5022470;28;20501;-72
2021/01/31 05:06:14;;;;;;;11.30;9.70;;;;;;;-1.81;100.00;96599.91;5018926;28;20447;-72
2021/01/31 05:08:41;;;;;;;9.73;8.73;;;;;;;-1.86;100.00;96597.66;5022941;28;20212;-73
2021/01/31 05:11:13;;;;;;;9.80;8.80;;;;;;;-1.90;100.00;96594.47;5016722;28;20693;-72
2021/01/31 05:13:45;;;;;;;10.70;9.70;;;;;;;-1.84;100.00;96592.34;5018653;28;20826;-72
2021/01/31 05:16:14;;;;;;;9.47;8.57;;;;;;;-1.77;100.00;96599.50;5022172;28;20482;-72
2021/01/31 05:18:45;;;;;;;8.90;8.10;;;;;;;-1.81;100.00;96594.69;5021470;28;21103;-72
2021/01/31 05:21:17;;;;;;;9.83;8.83;;;;;;;-1.94;100.00;96589.66;5020406;28;20486;-73
2021/01/31 05:23:48;;;;;;;9.57;8.67;;;;;;;-2.11;100.00;96599.56;5022719;28;21010;-73
2021/01/31 05:26:17;;;;;;;10.63;9.63;;;;;;;-2.14;100.00;96597.19;5023162;28;20466;-73
2021/01/31 05:28:47;;;;;;;10.73;9.73;;;;;;;-2.16;100.00;96593.91;5019843;28;20837;-73
2021/01/31 05:31:15;;;;;;;9.73;8.37;;;;;;;-2.18;100.00;96600.97;5020515;28;20716;-73
2021/01/31 05:33:50;;;;;;;9.47;8.60;;;;;;;-2.06;100.00;96604.41;5022450;28;20471;-72
2021/01/31 05:36:18;;;;;;;10.20;9.13;;;;;;;-2.13;100.00;96604.03;5021176;28;20207;-73
2021/01/31 05:38:47;;;;;;;9.87;8.87;;;;;;;-1.95;100.00;96611.34;5023154;28;20827;-73
2021/01/31 05:41:27;;;;;;;13.33;10.03;;;;;;;-1.98;100.00;96612.41;5022762;28;20713;-73
2021/01/31 05:43:56;;;;;;;11.10;10.00;;;;;;;-2.13;100.00;96606.63;5021668;28;20232;-74
2021/01/31 05:46:26;;;;;;;11.23;10.03;;;;;;;-2.15;100.00;96610.31;5019966;28;20831;-72
2021/01/31 05:48:53;;;;;;;11.90;10.63;;;;;;;-2.17;100.00;96604.41;5020027;28;20534;-73
2021/01/31 05:51:20;;;;;;;10.73;9.63;;;;;;;-2.21;100.00;96609.84;5020927;28;20200;-75
2021/01/31 05:53:47;;;;;;;11.10;10.00;;;;;;;-2.17;100.00;96612.19;5021744;28;20493;-73
2021/01/31 05:56:21;;;;;;;12.10;11.00;;;;;;;-2.14;100.00;96609.38;5021252;28;20595;-75
2021/01/31 05:58:50;;;;;;;11.43;10.33;;;;;;;-2.04;100.00;96605.09;5022135;28;20451;-75
2021/01/31 06:01:17;;;;;;;10.43;9.37;;;;;;;-2.12;100.00;96604.88;5021801;28;20497;-75
2021/01/31 06:03:44;;;;;;;12.60;9.67;;;;;;;-2.09;100.00;96609.84;5021387;28;20293;-74
2021/01/31 06:06:16;;;;;;;10.37;9.47;;;;;;;-2.19;100.00;96615.75;5019831;28;20455;-73
2021/01/31 06:08:46;;;;;;;11.63;10.13;;;;;;;-1.99;100.00;96622.94;5022472;28;20995;-75
2021/01/31 06:11:21;;;;;;;11.00;9.90;;;;;;;-2.11;100.00;96628.09;5021260;28;20451;-75
2021/01/31 06:14:01;;;;;;;11.30;10.20;;;;;;;-2.18;100.00;96634.72;5021188;28;20474;-74
2021/01/31 06:16:28;;;;;;;10.93;9.83;;;;;;;-2.23;100.00;96632.50;5021722;28;20203;-71
2021/01/31 06:18:59;;;;;;;11.63;10.53;;;;;;;-2.22;100.00;96646.28;5020597;28;20450;-74
2021/01/31 06:21:36;;;;;;;11.87;10.67;;;;;;;-2.21;100.00;96642.75;5017706;28;20451;-74
2021/01/31 06:24:04;;;;;;;12.10;10.90;;;;;;;-2.13;100.00;96645.56;5021305;28;20470;-73
2021/01/31 06:26:32;;;;;;;13.20;11.37;;;;;;;-2.21;100.00;96653.97;5020950;28;20204;-73
2021/01/31 06:29:04;;;;;;;11.93;10.83;;;;;;;-2.19;100.00;96662.47;5021729;28;20465;-74
2021/01/31 06:31:36;;;;;;;11.87;10.73;;;;;;;-1.96;100.00;96669.44;5020914;28;20477;-73
2021/01/31 06:34:03;;;;;;;10.97;9.90;;;;;;;-2.06;100.00;96670.16;5016971;28;20672;-73
2021/01/31 06:36:38;;;;;;;11.93;10.80;;;;;;;-2.06;100.00;96667.56;5019189;28;20796;-75
2021/01/31 06:39:13;;;;;;;11.83;10.63;;;;;;;-2.09;100.00;96662.56;5017301;28;20483;-75
2021/01/31 06:41:58;;;;;;;12.20;11.00;;;;;;;-2.13;100.00;96670.72;5021956;28;20536;-75
2021/01/31 06:44:34;;;;;;;12.27;11.07;;;;;;;-2.15;100.00;96665.63;5020021;28;20636;-74
2021/01/31 06:47:12;;;;;;;13.73;11.00;;;;;;;-2.10;100.00;96670.47;5016472;28;20207;-74
2021/01/31 06:49:48;;;;;;;11.50;10.40;;;;;;;-2.19;100.00;96672.84;5021068;28;20469;-75
2021/01/31 06:52:22;;;;;;;11.90;10.53;;;;;;;-2.21;100.00;96671.28;5017400;28;20470;-73
2021/01/31 06:54:59;;;;;;;12.80;11.50;;;;;;;-2.11;100.00;96672.25;5017346;28;20483;-75
2021/01/31 06:57:48;;;;;;;13.00;11.27;;;;;;;-2.19;100.00;96672.84;5020134;28;20526;-75
2021/01/31 07:00:54;;;;;;;12.47;10.90;;;;;;;-2.15;100.00;96678.63;5018792;28;20483;-75
2021/01/31 07:03:50;;;;;;;12.37;10.33;;;;;;;-2.13;100.00;96687.09;4995716;28;20204;-75
2021/01/31 07:06:52;;;;;;;13.07;11.07;;;;;;;-2.14;100.00;96693.25;5021585;28;20983;-75
2021/01/31 07:09:29;;;;;;;12.33;11.03;;;;;;;-2.15;100.00;96688.19;4990827;28;20749;-72
2021/01/31 07:12:02;;;;;;;12.63;11.27;;;;;;;-2.08;100.00;96700.59;5019729;28;20458;-74
2021/01/31 07:14:41;;;;;;;14.37;12.63;;;;;;;-2.12;100.00;96685.34;5019348;28;20471;-74
2021/01/31 07:17:20;;;;;;;13.30;11.90;;;;;;;-2.05;100.00;96689.13;5020004;28;20458;-74
2021/01/31 07:19:50;;;;;;;12.87;11.57;;;;;;;-2.03;100.00;96692.44;5017196;28;21203;-75
2021/01/31 07:22:20;;;;;;;13.03;11.70;;;;;;;-2.10;100.00;96699.84;5020152;28;20442;-74
2021/01/31 07:24:50;;;;;;;16.13;12.90;;;;;;;-1.92;100.00;96695.03;5020220;28;20477;-76
2021/01/31 07:27:21;;;;;;;14.33;12.37;;;;;;;-1.94;100.00;96698.69;5019596;28;20193;-75
2021/01/31 07:29:54;;;;;;;12.37;11.10;;;;;;;-1.83;100.00;96697.88;5020688;28;20695;-75
2021/01/31 07:32:24;;;;;;;14.60;13.07;;;;;;;-1.89;100.00;96696.56;5018564;28;20200;-76
2021/01/31 07:34:55;;;;;;;13.53;12.17;;;;;;;-1.84;100.00;96693.63;5018081;28;20789;-75
2021/01/31 07:37:24;;;;;;;15.53;13.27;;;;;;;-1.84;100.00;96693.63;5017810;28;20979;-75
2021/01/31 07:39:59;;;;;;;14.77;12.97;;;;;;;-1.87;100.00;96696.47;5018745;28;20497;-76
2021/01/31 07:42:28;;;;;;;12.70;11.40;;;;;;;-1.79;100.00;96699.28;5019357;28;20465;-76
2021/01/31 07:44:59;;;;;;;13.57;11.60;;;;;;;-1.82;100.00;96702.13;5019780;28;20884;-75
2021/01/31 07:47:26;;;;;;;13.23;11.80;;;;;;;-1.80;100.00;96698.44;5016147;28;20204;-75
2021/01/31 07:50:16;;;;;;;13.83;12.50;;;;;;;-1.68;100.00;96707.06;5020958;28;20204;-76
2021/01/31 07:52:52;;;;;;;13.27;11.97;;;;;;;-1.66;100.00;96706.97;5018853;28;20218;-76
2021/01/31 07:55:27;;;;;;;15.07;13.40;;;;;;;-1.72;100.00;96703.06;5021302;28;20859;-76
2021/01/31 07:58:21;;;;;;;13.37;11.97;;;;;;;-1.69;100.00;96707.22;5016282;28;20834;-76
2021/01/31 08:00:50;;;;;;;14.37;12.87;;;;;;;-1.64;100.00;96720.66;5006477;28;20744;-75
2021/01/31 08:03:29;;;;;;;14.60;12.60;;;;;;;-1.61;100.00;96712.63;5015794;28;20454;-75
2021/01/31 08:06:05;;;;;;;15.33;12.90;;;;;;;-1.73;100.00;96717.00;5019898;28;20203;-75
2021/01/31 08:08:51;;;;;;;14.60;12.33;;;;;;;-1.67;100.00;96718.31;5019377;28;20195;-76
2021/01/31 08:11:53;;;;;;;13.60;12.23;;;;;;;-1.55;100.00;96713.91;5017169;28;20212;-76
2021/01/31 08:14:58;;;;;;;14.10;12.60;;;;;;;-1.51;100.00;96717.94;5020116;28;20247;-75
2021/01/31 08:17:39;;;;;;;12.40;11.17;;;;;;;-1.48;100.00;96718.50;5017966;28;20200;-75
2021/01/31 08:20:46;;;;;;;14.67;12.53;;;;;;;-1.52;100.00;96727.50;5013838;28;20566;-76
2021/01/31 08:23:53;;;;;;;13.87;12.13;;;;;;;-1.53;100.00;96736.25;4930604;29;20211;-75
2021/01/31 08:26:47;;;;;;;15.40;12.17;;;;;;;-1.35;100.00;96730.53;4929474;29;20214;-75
2021/01/31 08:29:23;;;;;;;13.90;12.27;;;;;;;-1.56;100.00;96731.28;5018676;28;20216;-76
2021/01/31 08:32:09;;;;;;;14.23;11.30;;;;;;;-1.36;100.00;96741.88;5023331;28;20455;-76
2021/01/31 08:35:15;;;;;;;13.13;11.30;;;;;;;-1.51;100.00;96736.94;5020183;28;20463;-76
2021/01/31 08:37:43;;;;;;;13.20;11.90;;;;;;;-1.60;100.00;96743.66;5016887;28;20278;-76
2021/01/31 08:40:21;;;;;;;13.67;12.17;;;;;;;-1.62;100.00;96742.16;5022476;28;20232;-75
2021/01/31 08:42:54;;;;;;;16.00;13.03;;;;;;;-1.54;100.00;96742.38;5019062;28;20200;-77
2021/01/31 08:45:21;;;;;;;13.43;11.67;;;;;;;-1.39;100.00;96736.91;5023224;28;20454;-77
2021/01/31 08:47:48;;;;;;;20.40;14.97;;;;;;;-1.17;100.00;96744.69;5020462;28;20208;-74
2021/01/31 08:50:18;;;;;;;15.97;14.03;;;;;;;-1.18;100.00;96748.25;5024165;28;20588;-76
2021/01/31 08:52:47;;;;;;;15.60;12.90;;;;;;;-1.21;100.00;96745.91;5019235;28;20600;-74
2021/01/31 08:55:14;;;;;;;15.00;13.07;;;;;;;-1.30;100.00;96751.81;5024045;28;20858;-76
2021/01/31 08:57:41;;;;;;;16.90;15.13;;;;;;;-1.17;100.00;96746.47;5022604;28;20458;-75
2021/01/31 09:00:13;;;;;;;16.70;14.90;;;;;;;-1.29;100.00;96739.63;5023386;28;20258;-74
2021/01/31 09:02:44;;;;;;;13.67;12.27;;;;;;;-1.38;99.39;96736.81;5022144;28;20699;-74
2021/01/31 09:05:16;;;;;;;15.57;14.03;;;;;;;-1.42;99.41;96739.75;5019535;28;20934;-74
2021/01/31 09:07:45;;;;;;;15.77;14.03;;;;;;;-1.33;100.00;96739.88;5024455;28;20212;-74
2021/01/31 09:10:21;;;;;;;17.50;15.80;;;;;;;-1.09;97.60;96738.91;5019672;28;20215;-74
2021/01/31 09:12:48;;;;;;;15.00;13.47;;;;;;;-1.15;100.00;96734.16;5019435;28;20219;-74
2021/01/31 09:15:24;;;;;;;14.23;12.13;;;;;;;-0.95;100.00;96736.97;5020826;28;20234;-75
2021/01/31 09:17:53;;;;;;;14.27;12.77;;;;;;;-0.96;100.00;96738.72;5021888;28;20212;-76
2021/01/31 09:20:25;;;;;;;14.13;12.63;;;;;;;-0.95;99.99;96735.19;5019727;28;20482;-75
2021/01/31 09:22:56;;;;;;;13.90;12.40;;;;;;;-0.86;99.19;96745.81;5019792;28;20307;-75
2021/01/31 09:25:25;;;;;;;13.10;11.77;;;;;;;-1.06;99.69;96737.81;5023009;28;20824;-74
2021/01/31 09:28:04;;;;;;;13.77;11.50;;;;;;;-0.82;97.07;96742.00;5023798;28;20224;-75
2021/01/31 09:30:34;;;;;;;13.67;11.97;;;;;;;-0.96;98.25;96740.50;5020432;28;20201;-74
2021/01/31 09:33:05;;;;;;;17.37;15.67;;;;;;;-0.99;99.46;96748.56;5014019;28;20584;-74
2021/01/31 09:35:35;;;;;;;41.57;37.00;;;;;;;-1.00;100.00;96754.72;5015700;28;20197;-75
2021/01/31 09:38:16;;;;;;;21.50;19.30;;;;;;;-1.04;99.96;96749.75;5016754;28;20212;-75
2021/01/31 09:40:44;;;;;;;15.70;14.20;;;;;;;-0.92;98.34;96734.13;5019237;28;20228;-74
2021/01/31 09:43:17;;;;;;;12.97;11.67;;;;;;;-0.76;97.84;96731.09;5019945;28;20688;-75
2021/01/31 09:45:48;;;;;;;14.70;11.53;;;;;;;-0.77;97.31;96737.25;5017910;28;21022;-74
2021/01/31 09:48:19;;;;;;;13.23;11.80;;;;;;;-0.75;98.14;96736.22;5018724;28;20217;-75
2021/01/31 09:50:51;;;;;;;14.63;13.13;;;;;;;-0.69;98.60;96734.88;5020725;28;20446;-75
2021/01/31 09:53:28;;;;;;;14.30;12.90;;;;;;;-0.50;98.39;96738.59;5014535;28;20447;-75
2021/01/31 09:55:55;;;;;;;13.70;12.40;;;;;;;-0.45;96.21;96733.81;5019582;28;20215;-75
2021/01/31 09:58:23;;;;;;;14.93;13.27;;;;;;;-0.38;97.48;96732.38;5022458;28;20204;-75
2021/01/31 10:00:52;;;;;;;12.67;11.37;;;;;;;-0.42;97.06;96733.56;5022287;28;20220;-75
2021/01/31 10:03:27;;;;;;;13.07;11.67;;;;;;;-0.33;97.04;96742.41;5021451;28;20204;-75
2021/01/31 10:06:05;;;;;;;13.43;11.17;;;;;;;-0.24;96.76;96735.59;5022403;28;20204;-75
2021/01/31 10:08:33;;;;;;;12.63;11.10;;;;;;;-0.27;98.42;96738.44;5016243;28;20215;-74
2021/01/31 10:11:38;;;;;;;13.43;12.03;;;;;;;-0.33;96.14;96732.00;5019009;28;20204;-75
2021/01/31 10:14:07;;;;;;;14.73;12.30;;;;;;;-0.19;95.18;96736.88;5005866;28;20235;-75
2021/01/31 10:16:38;;;;;;;14.67;12.40;;;;;;;-0.24;95.06;96740.81;5019010;28;21586;-74
2021/01/31 10:19:16;;;;;;;13.73;12.07;;;;;;;-0.25;95.15;96731.34;5022120;28;20703;-75
2021/01/31 10:21:46;;;;;;;13.07;11.70;;;;;;;-0.38;95.22;96731.53;5018277;28;20239;-75
2021/01/31 10:24:27;;;;;;;14.00;11.77;;;;;;;-0.33;96.23;96729.38;5019992;28;20228;-75
2021/01/31 10:27:09;;;;;;;12.67;11.33;;;;;;;-0.39;96.25;96728.09;5020938;28;20906;-75
2021/01/31 10:29:37;;;;;;;12.27;10.63;;;;;;;-0.32;95.55;96729.25;5019092;28;20192;-75
2021/01/31 10:32:31;;;;;;;13.80;12.40;;;;;;;-0.33;95.64;96714.56;5020648;28;20211;-74
2021/01/31 10:35:00;;;;;;;13.00;11.63;;;;;;;-0.23;95.88;96712.03;5019115;28;20220;-75
2021/01/31 10:37:34;;;;;;;12.90;10.77;;;;;;;-0.25;94.41;96711.34;5020650;28;20807;-74
2021/01/31 10:40:01;;;;;;;13.37;11.30;;;;;;;-0.37;94.90;96717.59;5017385;28;20208;-75
2021/01/31 10:42:28;;;;;;;12.20;10.87;;;;;;;-0.35;95.49;96708.69;5017353;28;20204;-75
2021/01/31 10:45:02;;;;;;;13.47;12.07;;;;;;;-0.20;96.01;96705.75;5016163;28;20236;-75
2021/01/31 10:47:30;;;;;;;12.83;11.37;;;;;;;-0.17;95.76;96703.72;5013449;28;20199;-75
2021/01/31 10:49:57;;;;;;;12.13;10.93;;;;;;;-0.02;94.57;96705.97;5019856;28;20209;-75
2021/01/31 10:52:25;;;;;;;12.30;11.00;;;;;;;0.01;94.57;96703.13;5016367;28;20219;-75
2021/01/31 10:54:52;;;;;;;11.43;10.33;;;;;;;0.22;93.46;96705.72;5019086;28;20553;-74
2021/01/31 10:57:19;;;;;;;13.53;12.03;;;;;;;0.21;92.81;96709.25;5019619;28;20216;-75
2021/01/31 10:59:46;;;;;;;12.30;10.67;;;;;;;0.26;92.46;96703.66;5019422;28;20213;-73
2021/01/31 11:02:13;;;;;;;12.10;10.90;;;;;;;0.22;92.28;96703.09;5020603;28;20466;-74
2021/01/31 11:04:41;;;;;;;11.47;10.20;;;;;;;0.54;88.67;96696.88;5020197;28;20229;-73
2021/01/31 11:07:08;;;;;;;10.53;9.50;;;;;;;0.61;90.95;96698.97;5020240;28;20208;-75
2021/01/31 11:09:35;;;;;;;12.83;11.53;;;;;;;0.31;89.95;96708.47;5018314;28;20212;-75
2021/01/31 11:12:02;;;;;;;11.23;10.17;;;;;;;0.24;90.77;96713.38;5017416;28;20534;-74
2021/01/31 11:14:29;;;;;;;12.73;11.37;;;;;;;0.32;91.74;96712.72;5016827;28;20708;-74
2021/01/31 11:16:58;;;;;;;11.67;10.43;;;;;;;0.45;88.98;96715.91;5016288;28;20196;-76
2021/01/31 11:19:25;;;;;;;11.47;10.27;;;;;;;0.68;88.24;96713.13;5015637;28;20204;-74
2021/01/31 11:21:52;;;;;;;11.27;10.07;;;;;;;0.77;86.24;96712.31;5013634;28;20232;-74
2021/01/31 11:24:19;;;;;;;10.73;9.67;;;;;;;0.60;86.41;96710.38;5017559;28;20680;-75
2021/01/31 11:27:00;;;;;;;10.70;9.60;;;;;;;0.77;85.56;96709.72;5015149;28;20204;-74
2021/01/31 11:29:27;;;;;;;11.13;10.00;;;;;;;0.99;85.70;96706.03;5017308;28;20215;-76
2021/01/31 11:31:54;;;;;;;11.87;10.03;;;;;;;0.82;85.78;96698.88;5019323;28;20201;-75
2021/01/31 11:34:21;;;;;;;10.87;9.77;;;;;;;1.20;85.63;96701.66;5018846;28;20569;-75
2021/01/31 11:36:48;;;;;;;11.57;9.60;;;;;;;1.64;81.75;96699.44;5015293;28;20204;-75
2021/01/31 11:39:16;;;;;;;9.90;8.90;;;;;;;1.40;83.48;96707.69;5019691;28;20521;-75
2021/01/31 11:41:43;;;;;;;11.13;9.20;;;;;;;1.63;84.40;96705.63;5019244;28;20239;-75
2021/01/31 11:44:11;;;;;;;10.10;8.93;;;;;;;1.79;81.52;96706.84;5014741;28;20241;-74